Arlington, California
Current Conditions -  °F | °C
As of 10:53 AM on Tuesday 21 Oct 2014 (Local Time) from KRAL Reporting Station
Haze Haze  
Wind Chill: 68°   Ceiling: Unl
Heat Index: 68°   Visibility: 4mi
Dew Point: 59°   Wind: 3mph
Humidity: 73%   Direction: NA
Pressure: 29.93"   Gusts: NA
Location:  33.8878°N, 117.453°W
Report Text: KRAL 211753Z VRB03KT 4SM HZ CLR 20/15 A2993 RMK AO2 SLP122 T02000150 10200 20144 50001
Loading
Personal Weather Stations






























Interactive Weather Map
Tropical Storm Tracking
New forecast layout! Learn more

10-Day Weather Forecast

Advertisements
Track Severe Weather on mobile